sensor_id;sensor_type;location;lat;lon;timestamp;pressure;altitude;pressure_sealevel;temperature;humidity
9969;BME280;5025;48.890;9.278;2023-05-23T00:00:53;98559.09;;;19.51;71.07
9969;BME280;5025;48.890;9.278;2023-05-23T00:03:18;98559.47;;;19.44;71.35
9969;BME280;5025;48.890;9.278;2023-05-23T00:05:46;98559.19;;;19.46;71.38
9969;BME280;5025;48.890;9.278;2023-05-23T00:08:12;98560.28;;;19.45;71.85
9969;BME280;5025;48.890;9.278;2023-05-23T00:10:37;98560.28;;;19.45;71.75
9969;BME280;5025;48.890;9.278;2023-05-23T00:13:02;98560.28;;;19.45;71.84
9969;BME280;5025;48.890;9.278;2023-05-23T00:15:29;98558.88;;;19.47;71.86
9969;BME280;5025;48.890;9.278;2023-05-23T00:17:55;98557.75;;;19.48;72.00
9969;BME280;5025;48.890;9.278;2023-05-23T00:20:20;98561.09;;;19.45;72.24
9969;BME280;5025;48.890;9.278;2023-05-23T00:22:45;98557.91;;;19.38;72.67
9969;BME280;5025;48.890;9.278;2023-05-23T00:25:12;98565.44;;;19.27;73.34
9969;BME280;5025;48.890;9.278;2023-05-23T00:27:37;98555.16;;;19.14;73.99
9969;BME280;5025;48.890;9.278;2023-05-23T00:30:03;98562.66;;;19.03;74.97
9969;BME280;5025;48.890;9.278;2023-05-23T00:32:28;98564.75;;;18.87;76.29
9969;BME280;5025;48.890;9.278;2023-05-23T00:34:53;98565.56;;;18.88;76.59
9969;BME280;5025;48.890;9.278;2023-05-23T00:37:20;98569.13;;;18.83;76.67
9969;BME280;5025;48.890;9.278;2023-05-23T00:39:46;98571.16;;;18.72;77.76
9969;BME280;5025;48.890;9.278;2023-05-23T00:42:12;98568.13;;;18.74;77.69
9969;BME280;5025;48.890;9.278;2023-05-23T00:44:37;98568.06;;;18.79;77.70
9969;BME280;5025;48.890;9.278;2023-05-23T00:47:02;98567.19;;;18.84;77.50
9969;BME280;5025;48.890;9.278;2023-05-23T00:49:28;98566.13;;;18.85;77.29
9969;BME280;5025;48.890;9.278;2023-05-23T00:51:54;98564.47;;;18.89;77.38
9969;BME280;5025;48.890;9.278;2023-05-23T00:54:23;98570.50;;;18.86;77.50
9969;BME280;5025;48.890;9.278;2023-05-23T00:56:49;98573.81;;;18.77;78.28
9969;BME280;5025;48.890;9.278;2023-05-23T00:59:14;98574.94;;;18.76;78.32
9969;BME280;5025;48.890;9.278;2023-05-23T01:01:41;98581.81;;;18.74;78.68
9969;BME280;5025;48.890;9.278;2023-05-23T01:04:08;98588.91;;;18.75;78.61
9969;BME280;5025;48.890;9.278;2023-05-23T01:06:33;98595.53;;;18.69;79.27
9969;BME280;5025;48.890;9.278;2023-05-23T01:08:59;98590.66;;;18.60;79.62
9969;BME280;5025;48.890;9.278;2023-05-23T01:11:54;98595.31;;;18.60;79.86
9969;BME280;5025;48.890;9.278;2023-05-23T01:14:34;98593.44;;;18.55;80.17
9969;BME280;5025;48.890;9.278;2023-05-23T01:17:10;98593.44;;;18.55;80.09
9969;BME280;5025;48.890;9.278;2023-05-23T01:22:22;98594.81;;;18.53;80.68
9969;BME280;5025;48.890;9.278;2023-05-23T01:25:08;98596.41;;;18.59;80.45
9969;BME280;5025;48.890;9.278;2023-05-23T01:27:48;98587.63;;;18.62;80.21
9969;BME280;5025;48.890;9.278;2023-05-23T01:30:18;98594.19;;;18.66;80.29
9969;BME280;5025;48.890;9.278;2023-05-23T01:32:43;98586.03;;;18.61;80.66
9969;BME280;5025;48.890;9.278;2023-05-23T01:35:10;98590.91;;;18.64;80.64
9969;BME280;5025;48.890;9.278;2023-05-23T01:37:36;98583.75;;;18.68;80.20
9969;BME280;5025;48.890;9.278;2023-05-23T01:40:01;98578.56;;;18.67;80.18
9969;BME280;5025;48.890;9.278;2023-05-23T01:42:27;98590.91;;;18.64;80.22
9969;BME280;5025;48.890;9.278;2023-05-23T01:44:52;98583.03;;;18.57;80.44
9969;BME280;5025;48.890;9.278;2023-05-23T01:47:18;98594.22;;;18.61;80.69
9969;BME280;5025;48.890;9.278;2023-05-23T01:49:46;98584.91;;;18.62;80.30
9969;BME280;5025;48.890;9.278;2023-05-23T01:52:12;98585.75;;;18.62;80.33
9969;BME280;5025;48.890;9.278;2023-05-23T01:54:38;98590.09;;;18.63;80.33
9969;BME280;5025;48.890;9.278;2023-05-23T01:57:06;98587.63;;;18.62;80.13
9969;BME280;5025;48.890;9.278;2023-05-23T01:59:32;98589.28;;;18.63;80.29
9969;BME280;5025;48.890;9.278;2023-05-23T02:01:57;98592.25;;;18.67;80.22
9969;BME280;5025;48.890;9.278;2023-05-23T02:04:22;98583.81;;;18.63;80.27
9969;BME280;5025;48.890;9.278;2023-05-23T02:06:48;98587.69;;;18.57;80.58
9969;BME280;5025;48.890;9.278;2023-05-23T02:09:13;98587.16;;;18.55;80.68
9969;BME280;5025;48.890;9.278;2023-05-23T02:11:38;98591.81;;;18.54;80.75
9969;BME280;5025;48.890;9.278;2023-05-23T02:14:04;98603.31;;;18.51;80.73
9969;BME280;5025;48.890;9.278;2023-05-23T02:16:29;98598.97;;;18.50;80.58
9969;BME280;5025;48.890;9.278;2023-05-23T02:18:54;98591.84;;;18.49;80.67
9969;BME280;5025;48.890;9.278;2023-05-23T02:21:23;98601.69;;;18.50;80.68
9969;BME280;5025;48.890;9.278;2023-05-23T02:23:49;98598.69;;;18.52;80.60
9969;BME280;5025;48.890;9.278;2023-05-23T02:26:14;98596.47;;;18.54;80.57
9969;BME280;5025;48.890;9.278;2023-05-23T02:28:40;98600.84;;;18.55;80.64
9969;BME280;5025;48.890;9.278;2023-05-23T02:31:05;98600.28;;;18.58;80.69
9969;BME280;5025;48.890;9.278;2023-05-23T02:33:30;98607.63;;;18.57;80.77
9969;BME280;5025;48.890;9.278;2023-05-23T02:35:56;98615.84;;;18.57;80.63
9969;BME280;5025;48.890;9.278;2023-05-23T02:38:21;98606.84;;;18.57;80.62
9969;BME280;5025;48.890;9.278;2023-05-23T02:40:46;98611.72;;;18.60;80.66
9969;BME280;5025;48.890;9.278;2023-05-23T02:43:14;98606.50;;;18.63;80.42
9969;BME280;5025;48.890;9.278;2023-05-23T02:45:39;98611.41;;;18.67;80.60
9969;BME280;5025;48.890;9.278;2023-05-23T02:48:05;98607.56;;;18.68;80.40
9969;BME280;5025;48.890;9.278;2023-05-23T02:50:30;98615.78;;;18.68;80.49
9969;BME280;5025;48.890;9.278;2023-05-23T02:52:55;98616.56;;;18.68;80.72
9969;BME280;5025;48.890;9.278;2023-05-23T02:55:20;98613.03;;;18.68;80.36
9969;BME280;5025;48.890;9.278;2023-05-23T02:57:46;98613.84;;;18.68;80.81
9969;BME280;5025;48.890;9.278;2023-05-23T03:00:12;98620.97;;;18.69;80.63
9969;BME280;5025;48.890;9.278;2023-05-23T03:02:37;98622.59;;;18.70;80.60
9969;BME280;5025;48.890;9.278;2023-05-23T03:05:03;98615.50;;;18.69;80.44
9969;BME280;5025;48.890;9.278;2023-05-23T03:07:30;98624.50;;;18.70;80.50
9969;BME280;5025;48.890;9.278;2023-05-23T03:09:58;98624.50;;;18.70;80.60
9969;BME280;5025;48.890;9.278;2023-05-23T03:12:23;98619.31;;;18.68;80.49
9969;BME280;5025;48.890;9.278;2023-05-23T03:14:48;98620.97;;;18.69;80.30
9969;BME280;5025;48.890;9.278;2023-05-23T03:17:13;98626.44;;;18.69;80.53
9969;BME280;5025;48.890;9.278;2023-05-23T03:19:39;98630.25;;;18.68;80.45
9969;BME280;5025;48.890;9.278;2023-05-23T03:22:04;98625.34;;;18.65;80.62
9969;BME280;5025;48.890;9.278;2023-05-23T03:24:29;98622.09;;;18.63;80.70
9969;BME280;5025;48.890;9.278;2023-05-23T03:26:56;98635.50;;;18.64;80.37
9969;BME280;5025;48.890;9.278;2023-05-23T03:29:21;98637.13;;;18.66;80.61
9969;BME280;5025;48.890;9.278;2023-05-23T03:31:46;98628.09;;;18.65;80.65
9969;BME280;5025;48.890;9.278;2023-05-23T03:34:11;98631.09;;;18.63;80.82
9969;BME280;5025;48.890;9.278;2023-05-23T03:36:37;98631.41;;;18.62;80.67
9969;BME280;5025;48.890;9.278;2023-05-23T03:39:03;98634.69;;;18.59;80.97
9969;BME280;5025;48.890;9.278;2023-05-23T03:41:28;98641.53;;;18.61;80.94
9969;BME280;5025;48.890;9.278;2023-05-23T03:43:53;98643.47;;;18.61;80.89
9969;BME280;5025;48.890;9.278;2023-05-23T03:46:19;98628.66;;;18.62;80.83
9969;BME280;5025;48.890;9.278;2023-05-23T03:48:44;98633.03;;;18.63;81.06
9969;BME280;5025;48.890;9.278;2023-05-23T03:51:09;98637.72;;;18.62;80.95
9969;BME280;5025;48.890;9.278;2023-05-23T03:53:37;98630.59;;;18.61;81.15
9969;BME280;5025;48.890;9.278;2023-05-23T03:56:02;98633.31;;;18.61;81.05
9969;BME280;5025;48.890;9.278;2023-05-23T03:58:27;98634.19;;;18.57;81.03
9969;BME280;5025;48.890;9.278;2023-05-23T04:00:53;98637.72;;;18.57;81.21
9969;BME280;5025;48.890;9.278;2023-05-23T04:03:19;98632.53;;;18.56;81.14
9969;BME280;5025;48.890;9.278;2023-05-23T04:05:44;98641.59;;;18.51;81.19
9969;BME280;5025;48.890;9.278;2023-05-23T04:08:09;98648.72;;;18.52;81.30
9969;BME280;5025;48.890;9.278;2023-05-23T04:10:35;98644.03;;;18.53;81.22
9969;BME280;5025;48.890;9.278;2023-05-23T04:13:00;98649.81;;;18.51;81.30
9969;BME280;5025;48.890;9.278;2023-05-23T04:15:25;98656.38;;;18.50;81.49
9969;BME280;5025;48.890;9.278;2023-05-23T04:17:52;98653.97;;;18.43;81.55
9969;BME280;5025;48.890;9.278;2023-05-23T04:20:17;98650.66;;;18.46;81.64
9969;BME280;5025;48.890;9.278;2023-05-23T04:22:42;98649.28;;;18.49;81.50
9969;BME280;5025;48.890;9.278;2023-05-23T04:25:08;98653.38;;;18.52;81.64
9969;BME280;5025;48.890;9.278;2023-05-23T04:27:33;98651.78;;;18.45;81.68
9969;BME280;5025;48.890;9.278;2023-05-23T04:29:59;98654.50;;;18.45;82.00
9969;BME280;5025;48.890;9.278;2023-05-23T04:32:24;98653.66;;;18.45;81.74
9969;BME280;5025;48.890;9.278;2023-05-23T04:34:50;98646.63;;;18.39;81.85
9969;BME280;5025;48.890;9.278;2023-05-23T04:37:16;98655.06;;;18.42;82.03
9969;BME280;5025;48.890;9.278;2023-05-23T04:39:46;98661.06;;;18.44;81.79
9969;BME280;5025;48.890;9.278;2023-05-23T04:42:11;98663.22;;;18.48;81.89
9969;BME280;5025;48.890;9.278;2023-05-23T04:44:36;98667.63;;;18.49;81.66
9969;BME280;5025;48.890;9.278;2023-05-23T04:47:02;98667.31;;;18.50;81.85
9969;BME280;5025;48.890;9.278;2023-05-23T04:49:27;98671.41;;;18.53;81.73
9969;BME280;5025;48.890;9.278;2023-05-23T04:51:53;98670.59;;;18.52;81.82
9969;BME280;5025;48.890;9.278;2023-05-23T04:54:18;98678.22;;;18.55;81.82
9969;BME280;5025;48.890;9.278;2023-05-23T04:56:44;98669.22;;;18.55;81.78
9969;BME280;5025;48.890;9.278;2023-05-23T04:59:09;98667.00;;;18.57;81.62
9969;BME280;5025;48.890;9.278;2023-05-23T05:01:35;98675.72;;;18.59;81.82
9969;BME280;5025;48.890;9.278;2023-05-23T05:04:04;98676.56;;;18.59;81.58
9969;BME280;5025;48.890;9.278;2023-05-23T05:06:29;98682.56;;;18.61;81.58
9969;BME280;5025;48.890;9.278;2023-05-23T05:08:55;98682.03;;;18.59;81.77
9969;BME280;5025;48.890;9.278;2023-05-23T05:11:20;98687.78;;;18.53;81.90
9969;BME280;5025;48.890;9.278;2023-05-23T05:13:46;98689.53;;;18.43;82.24
9969;BME280;5025;48.890;9.278;2023-05-23T05:16:11;98692.84;;;18.40;82.42
9969;BME280;5025;48.890;9.278;2023-05-23T05:18:37;98694.41;;;18.46;82.39
9969;BME280;5025;48.890;9.278;2023-05-23T05:21:03;98690.09;;;18.40;82.40
9969;BME280;5025;48.890;9.278;2023-05-23T05:23:30;98688.72;;;18.38;82.58
9969;BME280;5025;48.890;9.278;2023-05-23T05:25:55;98693.34;;;18.42;82.47
9969;BME280;5025;48.890;9.278;2023-05-23T05:28:21;98688.97;;;18.41;82.48
9969;BME280;5025;48.890;9.278;2023-05-23T05:30:46;98696.13;;;18.37;82.55
9969;BME280;5025;48.890;9.278;2023-05-23T05:33:12;98697.78;;;18.33;83.09
9969;BME280;5025;48.890;9.278;2023-05-23T05:35:38;98697.50;;;18.35;83.04
9969;BME280;5025;48.890;9.278;2023-05-23T05:38:03;98696.97;;;18.27;83.35
9969;BME280;5025;48.890;9.278;2023-05-23T05:40:30;98692.34;;;18.28;83.56
9969;BME280;5025;48.890;9.278;2023-05-23T05:42:56;98695.88;;;18.28;83.86
9969;BME280;5025;48.890;9.278;2023-05-23T05:45:21;98693.44;;;18.27;83.77
9969;BME280;5025;48.890;9.278;2023-05-23T05:47:47;98692.34;;;18.28;83.78
9969;BME280;5025;48.890;9.278;2023-05-23T05:50:12;98700.84;;;18.26;83.59
9969;BME280;5025;48.890;9.278;2023-05-23T05:52:37;98695.09;;;18.28;83.92
9969;BME280;5025;48.890;9.278;2023-05-23T05:55:08;98696.41;;;18.36;83.78
9969;BME280;5025;48.890;9.278;2023-05-23T05:57:37;98693.34;;;18.42;83.46
9969;BME280;5025;48.890;9.278;2023-05-23T06:00:06;98698.78;;;18.48;83.29
9969;BME280;5025;48.890;9.278;2023-05-23T06:02:37;98698.31;;;18.35;83.37
9969;BME280;5025;48.890;9.278;2023-05-23T06:05:02;98695.31;;;18.32;83.61
9969;BME280;5025;48.890;9.278;2023-05-23T06:07:28;98702.16;;;18.34;83.80
9969;BME280;5025;48.890;9.278;2023-05-23T06:09:53;98705.75;;;18.24;83.90
9969;BME280;5025;48.890;9.278;2023-05-23T06:12:18;98703.31;;;18.18;84.06
9969;BME280;5025;48.890;9.278;2023-05-23T06:14:44;98706.66;;;18.09;84.30
9969;BME280;5025;48.890;9.278;2023-05-23T06:17:09;98707.81;;;17.88;85.14
9969;BME280;5025;48.890;9.278;2023-05-23T06:19:34;98711.09;;;17.90;85.58
9969;BME280;5025;48.890;9.278;2023-05-23T06:22:00;98708.88;;;17.87;85.65
9969;BME280;5025;48.890;9.278;2023-05-23T06:24:25;98709.69;;;17.98;85.32
9969;BME280;5025;48.890;9.278;2023-05-23T06:26:50;98706.13;;;18.02;85.12
9969;BME280;5025;48.890;9.278;2023-05-23T06:29:15;98705.53;;;18.10;84.85
9969;BME280;5025;48.890;9.278;2023-05-23T06:31:41;98708.25;;;18.10;84.74
9969;BME280;5025;48.890;9.278;2023-05-23T06:34:06;98712.16;;;17.99;84.75
9969;BME280;5025;48.890;9.278;2023-05-23T06:36:31;98725.84;;;17.94;84.96
9969;BME280;5025;48.890;9.278;2023-05-23T06:38:56;98732.91;;;17.95;85.02
9969;BME280;5025;48.890;9.278;2023-05-23T06:41:22;98727.97;;;18.07;84.67
9969;BME280;5025;48.890;9.278;2023-05-23T06:43:47;98731.25;;;18.09;84.54
9969;BME280;5025;48.890;9.278;2023-05-23T06:46:13;98743.25;;;18.19;84.39
9969;BME280;5025;48.890;9.278;2023-05-23T06:48:38;98740.44;;;18.29;83.92
9969;BME280;5025;48.890;9.278;2023-05-23T06:51:03;98742.97;;;18.15;83.54
9969;BME280;5025;48.890;9.278;2023-05-23T06:53:28;98734.19;;;18.23;83.50
9969;BME280;5025;48.890;9.278;2023-05-23T06:55:53;98734.97;;;18.34;83.21
9969;BME280;5025;48.890;9.278;2023-05-23T06:58:21;98742.53;;;18.48;82.67
9969;BME280;5025;48.890;9.278;2023-05-23T07:00:46;98753.44;;;18.53;81.87
9969;BME280;5025;48.890;9.278;2023-05-23T07:03:11;98749.94;;;18.47;81.92
9969;BME280;5025;48.890;9.278;2023-05-23T07:05:37;98749.69;;;18.43;81.93
9969;BME280;5025;48.890;9.278;2023-05-23T07:08:02;98757.00;;;18.48;81.74
9969;BME280;5025;48.890;9.278;2023-05-23T07:10:27;98755.63;;;18.51;81.64
9969;BME280;5025;48.890;9.278;2023-05-23T07:12:52;98757.28;;;18.52;81.57
9969;BME280;5025;48.890;9.278;2023-05-23T07:15:18;98766.63;;;18.45;81.26
9969;BME280;5025;48.890;9.278;2023-05-23T07:17:44;98768.34;;;18.31;80.49
9969;BME280;5025;48.890;9.278;2023-05-23T07:20:09;98780.16;;;18.11;80.25
9969;BME280;5025;48.890;9.278;2023-05-23T07:22:35;98771.72;;;17.97;80.83
9969;BME280;5025;48.890;9.278;2023-05-23T07:25:00;98773.34;;;18.03;80.65
9969;BME280;5025;48.890;9.278;2023-05-23T07:27:26;98775.00;;;17.99;79.61
9969;BME280;5025;48.890;9.278;2023-05-23T07:29:51;98777.19;;;17.97;79.57
9969;BME280;5025;48.890;9.278;2023-05-23T07:32:17;98771.75;;;17.82;79.76
9969;BME280;5025;48.890;9.278;2023-05-23T07:34:42;98776.94;;;17.88;79.72
9969;BME280;5025;48.890;9.278;2023-05-23T07:37:07;98777.72;;;17.99;79.77
9969;BME280;5025;48.890;9.278;2023-05-23T07:39:32;98773.31;;;18.14;79.38
9969;BME280;5025;48.890;9.278;2023-05-23T07:41:57;98777.66;;;18.20;78.57
9969;BME280;5025;48.890;9.278;2023-05-23T07:44:23;98774.34;;;18.28;78.39
9969;BME280;5025;48.890;9.278;2023-05-23T07:46:48;98775.38;;;18.42;77.90
9969;BME280;5025;48.890;9.278;2023-05-23T07:49:13;98775.91;;;18.44;77.45
9969;BME280;5025;48.890;9.278;2023-05-23T07:51:39;98781.94;;;18.41;76.65
9969;BME280;5025;48.890;9.278;2023-05-23T07:54:05;98776.16;;;18.53;76.30
9969;BME280;5025;48.890;9.278;2023-05-23T07:56:31;98791.72;;;18.53;76.08
9969;BME280;5025;48.890;9.278;2023-05-23T07:58:56;98783.47;;;18.63;76.09
9969;BME280;5025;48.890;9.278;2023-05-23T08:01:21;98782.06;;;18.71;75.55
9969;BME280;5025;48.890;9.278;2023-05-23T08:03:48;98790.56;;;18.69;75.32
9969;BME280;5025;48.890;9.278;2023-05-23T08:06:14;98791.03;;;18.87;75.21
9969;BME280;5025;48.890;9.278;2023-05-23T08:08:39;98792.84;;;19.02;74.44
9969;BME280;5025;48.890;9.278;2023-05-23T08:11:05;98799.69;;;18.99;73.13
9969;BME280;5025;48.890;9.278;2023-05-23T08:13:30;98800.59;;;18.79;71.73
9969;BME280;5025;48.890;9.278;2023-05-23T08:15:55;98796.22;;;18.83;72.03
9969;BME280;5025;48.890;9.278;2023-05-23T08:18:21;98806.34;;;18.83;70.87
9969;BME280;5025;48.890;9.278;2023-05-23T08:20:46;98808.81;;;18.79;71.23
9969;BME280;5025;48.890;9.278;2023-05-23T08:23:11;98800.34;;;18.86;71.37
9969;BME280;5025;48.890;9.278;2023-05-23T08:25:38;98809.09;;;18.83;71.24
9969;BME280;5025;48.890;9.278;2023-05-23T08:28:03;98815.66;;;18.81;71.21
9969;BME280;5025;48.890;9.278;2023-05-23T08:30:28;98812.38;;;18.85;71.42
9969;BME280;5025;48.890;9.278;2023-05-23T08:32:55;98809.31;;;18.91;70.62
9969;BME280;5025;48.890;9.278;2023-05-23T08:35:21;98811.84;;;18.77;69.45
9969;BME280;5025;48.890;9.278;2023-05-23T08:37:47;98814.44;;;18.48;70.13
9969;BME280;5025;48.890;9.278;2023-05-23T08:40:14;98826.16;;;18.59;70.92
9969;BME280;5025;48.890;9.278;2023-05-23T08:42:43;98817.31;;;18.77;70.50
9969;BME280;5025;48.890;9.278;2023-05-23T08:45:08;98818.44;;;18.76;70.20
9969;BME280;5025;48.890;9.278;2023-05-23T08:47:35;98818.19;;;18.68;70.13
9969;BME280;5025;48.890;9.278;2023-05-23T08:50:04;98823.38;;;18.69;70.49
9969;BME280;5025;48.890;9.278;2023-05-23T08:52:32;98829.09;;;18.73;69.87
9969;BME280;5025;48.890;9.278;2023-05-23T08:55:02;98829.94;;;18.73;69.09
9969;BME280;5025;48.890;9.278;2023-05-23T08:57:27;98829.44;;;18.61;69.40
9969;BME280;5025;48.890;9.278;2023-05-23T08:59:54;98833.53;;;18.58;69.37
9969;BME280;5025;48.890;9.278;2023-05-23T09:02:20;98834.44;;;18.38;68.96
9969;BME280;5025;48.890;9.278;2023-05-23T09:04:46;98839.59;;;18.45;69.05
9969;BME280;5025;48.890;9.278;2023-05-23T09:07:11;98840.75;;;18.39;69.03
9969;BME280;5025;48.890;9.278;2023-05-23T09:09:40;98846.44;;;18.48;68.86
9969;BME280;5025;48.890;9.278;2023-05-23T09:12:05;98845.03;;;18.55;68.80
9969;BME280;5025;48.890;9.278;2023-05-23T09:14:30;98851.38;;;18.45;68.16
9969;BME280;5025;48.890;9.278;2023-05-23T09:17:00;98845.97;;;18.30;68.53
9969;BME280;5025;48.890;9.278;2023-05-23T09:19:26;98857.94;;;18.44;68.31
9969;BME280;5025;48.890;9.278;2023-05-23T09:21:53;98846.19;;;18.44;68.23
9969;BME280;5025;48.890;9.278;2023-05-23T09:24:18;98852.47;;;18.44;68.44
9969;BME280;5025;48.890;9.278;2023-05-23T09:26:48;98853.84;;;18.47;68.13
9969;BME280;5025;48.890;9.278;2023-05-23T09:29:13;98859.56;;;18.51;67.71
9969;BME280;5025;48.890;9.278;2023-05-23T09:31:38;98854.88;;;18.61;67.52
9969;BME280;5025;48.890;9.278;2023-05-23T09:34:04;98861.16;;;18.62;67.41
9969;BME280;5025;48.890;9.278;2023-05-23T09:36:32;98855.09;;;18.75;66.27
9969;BME280;5025;48.890;9.278;2023-05-23T09:39:02;98859.81;;;18.54;66.71
9969;BME280;5025;48.890;9.278;2023-05-23T09:41:33;98861.44;;;18.60;67.11
9969;BME280;5025;48.890;9.278;2023-05-23T09:44:04;98862.16;;;18.87;66.76
9969;BME280;5025;48.890;9.278;2023-05-23T09:46:29;98862.63;;;19.04;66.47
9969;BME280;5025;48.890;9.278;2023-05-23T09:48:55;98871.97;;;18.93;65.65
9969;BME280;5025;48.890;9.278;2023-05-23T09:51:22;98862.44;;;18.85;65.49
9969;BME280;5025;48.890;9.278;2023-05-23T09:53:48;98862.91;;;18.97;65.52
9969;BME280;5025;48.890;9.278;2023-05-23T09:56:15;98861.31;;;18.96;65.10
9969;BME280;5025;48.890;9.278;2023-05-23T09:58:45;98861.88;;;18.93;64.97
9969;BME280;5025;48.890;9.278;2023-05-23T10:01:12;98861.59;;;18.95;64.75
9969;BME280;5025;48.890;9.278;2023-05-23T10:03:51;98862.06;;;19.07;64.58
9969;BME280;5025;48.890;9.278;2023-05-23T10:06:24;98858.13;;;19.24;64.42
9969;BME280;5025;48.890;9.278;2023-05-23T10:08:56;98857.03;;;19.25;63.76
9969;BME280;5025;48.890;9.278;2023-05-23T10:14:08;98856.22;;;19.24;62.52
9969;BME280;5025;48.890;9.278;2023-05-23T10:16:54;98858.13;;;19.24;62.92
9969;BME280;5025;48.890;9.278;2023-05-23T10:19:34;98860.28;;;19.27;62.55
9969;BME280;5025;48.890;9.278;2023-05-23T10:22:05;98860.72;;;19.44;62.23
9969;BME280;5025;48.890;9.278;2023-05-23T10:24:31;98862.84;;;19.52;61.94
9969;BME280;5025;48.890;9.278;2023-05-23T10:26:57;98877.63;;;19.57;61.20
9969;BME280;5025;48.890;9.278;2023-05-23T10:29:23;98869.56;;;19.31;59.91
9969;BME280;5025;48.890;9.278;2023-05-23T10:31:50;98868.97;;;19.39;60.59
9969;BME280;5025;48.890;9.278;2023-05-23T10:34:53;98869.41;;;19.57;60.41
9969;BME280;5025;48.890;9.278;2023-05-23T10:37:44;98872.53;;;19.74;60.24
9969;BME280;5025;48.890;9.278;2023-05-23T10:42:55;98871.81;;;19.98;60.27
9969;BME280;5025;48.890;9.278;2023-05-23T10:45:22;98879.50;;;19.96;59.93
9969;BME280;5025;48.890;9.278;2023-05-23T10:47:50;98875.19;;;19.90;59.65
9969;BME280;5025;48.890;9.278;2023-05-23T10:50:42;98874.03;;;19.61;58.25
9969;BME280;5025;48.890;9.278;2023-05-23T10:53:08;98873.97;;;19.66;58.76
9969;BME280;5025;48.890;9.278;2023-05-23T10:55:35;98872.03;;;19.67;58.35
9969;BME280;5025;48.890;9.278;2023-05-23T10:58:17;98873.22;;;19.56;57.90
9969;BME280;5025;48.890;9.278;2023-05-23T11:01:04;98869.41;;;19.57;58.24
9969;BME280;5025;48.890;9.278;2023-05-23T11:03:31;98874.94;;;19.46;57.96
9969;BME280;5025;48.890;9.278;2023-05-23T11:06:01;98875.00;;;19.36;58.15
9969;BME280;5025;48.890;9.278;2023-05-23T11:08:27;98875.28;;;19.40;58.14
9969;BME280;5025;48.890;9.278;2023-05-23T11:11:03;98876.38;;;19.39;57.56
9969;BME280;5025;48.890;9.278;2023-05-23T11:13:54;98880.00;;;19.29;55.92
9969;BME280;5025;48.890;9.278;2023-05-23T11:16:31;98875.34;;;19.29;56.52
9969;BME280;5025;48.890;9.278;2023-05-23T11:21:45;98875.09;;;19.21;56.03
9969;BME280;5025;48.890;9.278;2023-05-23T11:24:13;98884.59;;;19.39;56.15
9969;BME280;5025;48.890;9.278;2023-05-23T11:26:38;98876.59;;;19.42;55.94
9969;BME280;5025;48.890;9.278;2023-05-23T11:29:07;98875.34;;;19.64;55.61
9969;BME280;5025;48.890;9.278;2023-05-23T11:31:37;98878.00;;;19.74;54.90
9969;BME280;5025;48.890;9.278;2023-05-23T11:34:02;98874.91;;;19.86;54.92
9969;BME280;5025;48.890;9.278;2023-05-23T11:36:27;98881.91;;;20.02;55.06
9969;BME280;5025;48.890;9.278;2023-05-23T11:38:54;98871.41;;;20.10;55.08
9969;BME280;5025;48.890;9.278;2023-05-23T11:41:19;98873.91;;;20.06;54.10
9969;BME280;5025;48.890;9.278;2023-05-23T11:43:52;98870.06;;;20.07;53.75
9969;BME280;5025;48.890;9.278;2023-05-23T11:46:18;98866.16;;;20.13;54.85
9969;BME280;5025;48.890;9.278;2023-05-23T11:48:47;98872.47;;;20.14;54.02
9969;BME280;5025;48.890;9.278;2023-05-23T11:51:13;98874.34;;;19.89;54.50
9969;BME280;5025;48.890;9.278;2023-05-23T11:53:38;98880.22;;;19.77;54.62
9969;BME280;5025;48.890;9.278;2023-05-23T11:56:04;98874.72;;;19.77;54.98
9969;BME280;5025;48.890;9.278;2023-05-23T11:58:32;98874.16;;;19.41;54.34
9969;BME280;5025;48.890;9.278;2023-05-23T12:01:08;98876.47;;;19.23;55.31
9969;BME280;5025;48.890;9.278;2023-05-23T12:03:46;98872.28;;;19.36;55.83
9969;BME280;5025;48.890;9.278;2023-05-23T12:06:17;98870.28;;;19.47;55.51
9969;BME280;5025;48.890;9.278;2023-05-23T12:08:43;98866.56;;;19.32;54.98
9969;BME280;5025;48.890;9.278;2023-05-23T12:11:08;98868.53;;;19.22;55.52
9969;BME280;5025;48.890;9.278;2023-05-23T12:13:33;98870.19;;;19.17;55.82
9969;BME280;5025;48.890;9.278;2023-05-23T12:16:00;98868.88;;;19.10;55.47
9969;BME280;5025;48.890;9.278;2023-05-23T12:18:31;98858.19;;;19.13;55.35
9969;BME280;5025;48.890;9.278;2023-05-23T12:21:03;98859.44;;;19.31;54.75
9969;BME280;5025;48.890;9.278;2023-05-23T12:23:31;98854.41;;;19.44;54.37
9969;BME280;5025;48.890;9.278;2023-05-23T12:25:56;98862.09;;;19.42;54.65
9969;BME280;5025;48.890;9.278;2023-05-23T12:28:34;98861.19;;;19.57;54.06
9969;BME280;5025;48.890;9.278;2023-05-23T12:33:37;98852.56;;;19.74;54.45
9969;BME280;5025;48.890;9.278;2023-05-23T12:36:04;98846.63;;;19.91;54.28
9969;BME280;5025;48.890;9.278;2023-05-23T12:38:32;98857.56;;;19.96;55.03
9969;BME280;5025;48.890;9.278;2023-05-23T12:41:28;98853.63;;;20.07;54.27
9969;BME280;5025;48.890;9.278;2023-05-23T12:43:55;98845.97;;;20.04;53.59
9969;BME280;5025;48.890;9.278;2023-05-23T12:46:22;98842.59;;;20.12;53.98
9969;BME280;5025;48.890;9.278;2023-05-23T12:48:47;98843.38;;;20.42;54.01
9969;BME280;5025;48.890;9.278;2023-05-23T12:51:13;98840.31;;;20.68;53.68
9969;BME280;5025;48.890;9.278;2023-05-23T12:53:39;98836.06;;;20.81;52.39
9969;BME280;5025;48.890;9.278;2023-05-23T12:56:04;98826.94;;;21.04;52.13
9969;BME280;5025;48.890;9.278;2023-05-23T12:58:30;98832.03;;;21.30;52.06
9969;BME280;5025;48.890;9.278;2023-05-23T13:00:56;98829.22;;;21.35;51.55
9969;BME280;5025;48.890;9.278;2023-05-23T13:03:21;98827.66;;;21.10;50.87
9969;BME280;5025;48.890;9.278;2023-05-23T13:05:46;98827.66;;;21.10;51.24
9969;BME280;5025;48.890;9.278;2023-05-23T13:08:12;98842.66;;;20.99;51.40
9969;BME280;5025;48.890;9.278;2023-05-23T13:10:37;98836.94;;;20.76;52.09
9969;BME280;5025;48.890;9.278;2023-05-23T13:13:03;98836.13;;;20.51;52.28
9969;BME280;5025;48.890;9.278;2023-05-23T13:15:28;98835.25;;;20.56;52.55
9969;BME280;5025;48.890;9.278;2023-05-23T13:17:54;98835.00;;;20.52;53.09
9969;BME280;5025;48.890;9.278;2023-05-23T13:20:20;98837.00;;;20.71;53.19
9969;BME280;5025;48.890;9.278;2023-05-23T13:22:46;98840.38;;;20.87;52.62
9969;BME280;5025;48.890;9.278;2023-05-23T13:25:11;98835.59;;;20.73;52.23
9969;BME280;5025;48.890;9.278;2023-05-23T13:27:36;98833.97;;;20.72;52.56
9969;BME280;5025;48.890;9.278;2023-05-23T13:30:02;98838.50;;;20.82;52.55
9969;BME280;5025;48.890;9.278;2023-05-23T13:32:27;98843.13;;;21.06;52.24
9969;BME280;5025;48.890;9.278;2023-05-23T13:34:53;98833.69;;;21.12;52.39